ANA246 RJTT-RJFF
Flight info
| Callsign | ANA246 |
|---|---|
| Flight time | 1h 29m |
| Altitude | 36000 |
| Route | TIARA GUSRO Y20 KIRIN |
| Aircraft | B763/H-SDE3FGHIM3RWXY/LB1 |
Departure
| Time | 2026-05-07 12:13 |
|---|---|
| Airport | Tokyo Haneda International Airport (RJTT) |
Arrival
| Time | 2026-05-07 13:43 |
|---|---|
| Airport | Fukuoka Airport (RJFF) |
| Time | Latitude | Longitude | Altitude | Speed | Heading |
|---|---|---|---|---|---|
| 2026-05-07 11:41 | 0.00000 | 0.00000 | 0 ft | 0 kts | 0° |
| 2026-05-07 11:42 | 35.54235 | 139.79771 | 31 ft | 0 kts | 60° |
| 2026-05-07 11:58 | 35.54231 | 139.79762 | 31 ft | 2 kts | 60° |
| 2026-05-07 11:58 | 35.54223 | 139.79747 | 31 ft | 2 kts | 60° |
| 2026-05-07 11:58 | 35.54219 | 139.79736 | 31 ft | 1 kts | 60° |
| 2026-05-07 11:58 | 35.54205 | 139.79710 | 31 ft | 5 kts | 52° |
| 2026-05-07 11:59 | 35.54180 | 139.79684 | 31 ft | 3 kts | 27° |
| 2026-05-07 11:59 | 35.54157 | 139.79677 | 31 ft | 3 kts | 358° |
| 2026-05-07 11:59 | 35.54149 | 139.79677 | 31 ft | 0 kts | 342° |
| 2026-05-07 12:02 | 35.54146 | 139.79678 | 31 ft | 0 kts | 338° |
| 2026-05-07 12:06 | 35.54147 | 139.79678 | 31 ft | 0 kts | 338° |
| 2026-05-07 12:07 | 35.54171 | 139.79666 | 31 ft | 7 kts | 339° |
| 2026-05-07 12:07 | 35.54239 | 139.79636 | 31 ft | 13 kts | 340° |
| 2026-05-07 12:07 | 35.54344 | 139.79578 | 31 ft | 19 kts | 329° |
| 2026-05-07 12:07 | 35.54462 | 139.79489 | 31 ft | 20 kts | 330° |
| 2026-05-07 12:08 | 35.54582 | 139.79405 | 31 ft | 18 kts | 330° |
| 2026-05-07 12:08 | 35.54664 | 139.79367 | 31 ft | 10 kts | 15° |
| 2026-05-07 12:08 | 35.54706 | 139.79431 | 31 ft | 10 kts | 60° |
| 2026-05-07 12:08 | 35.54747 | 139.79520 | 31 ft | 13 kts | 61° |
| 2026-05-07 12:09 | 35.54772 | 139.79568 | 31 ft | 6 kts | 56° |
| 2026-05-07 12:09 | 35.54823 | 139.79631 | 31 ft | 12 kts | 17° |
| 2026-05-07 12:09 | 35.54905 | 139.79596 | 31 ft | 13 kts | 329° |
| 2026-05-07 12:09 | 35.55007 | 139.79523 | 31 ft | 20 kts | 330° |
| 2026-05-07 12:10 | 35.55151 | 139.79419 | 31 ft | 27 kts | 329° |
| 2026-05-07 12:10 | 35.55323 | 139.79297 | 31 ft | 28 kts | 330° |
| 2026-05-07 12:10 | 35.55497 | 139.79175 | 31 ft | 28 kts | 330° |
| 2026-05-07 12:10 | 35.55671 | 139.79050 | 31 ft | 28 kts | 329° |
| 2026-05-07 12:11 | 35.55844 | 139.78926 | 31 ft | 29 kts | 330° |
| 2026-05-07 12:11 | 35.56021 | 139.78803 | 31 ft | 29 kts | 330° |
| 2026-05-07 12:11 | 35.56197 | 139.78677 | 31 ft | 29 kts | 329° |
| 2026-05-07 12:11 | 35.56361 | 139.78561 | 31 ft | 19 kts | 335° |
| 2026-05-07 12:12 | 35.56437 | 139.78592 | 31 ft | 11 kts | 52° |
| 2026-05-07 12:12 | 35.56482 | 139.78680 | 31 ft | 12 kts | 66° |
| 2026-05-07 12:12 | 35.56457 | 139.78744 | 31 ft | 8 kts | 145° |
| 2026-05-07 12:12 | 35.56376 | 139.78806 | 31 ft | 29 kts | 150° |
| 2026-05-07 12:13 | 35.56003 | 139.79051 | 31 ft | 91 kts | 149° |
| 2026-05-07 12:13 | 35.55288 | 139.79572 | 40 ft | 144 kts | 152° |
| 2026-05-07 12:13 | 35.54362 | 139.80228 | 388 ft | 160 kts | 154° |
| 2026-05-07 12:13 | 35.53434 | 139.80937 | 1070 ft | 161 kts | 146° |
| 2026-05-07 12:14 | 35.52625 | 139.81895 | 1733 ft | 164 kts | 139° |
| 2026-05-07 12:14 | 35.51926 | 139.82997 | 2297 ft | 174 kts | 121° |
| 2026-05-07 12:14 | 35.51839 | 139.84515 | 2872 ft | 188 kts | 72° |
| 2026-05-07 12:14 | 35.52543 | 139.85838 | 3458 ft | 191 kts | 51° |
| 2026-05-07 12:15 | 35.53426 | 139.87149 | 3741 ft | 212 kts | 51° |
| 2026-05-07 12:15 | 35.54434 | 139.88672 | 3874 ft | 248 kts | 51° |
| 2026-05-07 12:15 | 35.55568 | 139.90384 | 4491 ft | 264 kts | 51° |
| 2026-05-07 12:15 | 35.56719 | 139.92108 | 5491 ft | 263 kts | 51° |
| 2026-05-07 12:16 | 35.57873 | 139.93843 | 6419 ft | 265 kts | 51° |
| 2026-05-07 12:16 | 35.59049 | 139.95578 | 7308 ft | 268 kts | 44° |
| 2026-05-07 12:16 | 35.60614 | 139.96825 | 8038 ft | 274 kts | 16° |
| 2026-05-07 12:16 | 35.62441 | 139.97456 | 8914 ft | 275 kts | 12° |
| 2026-05-07 12:17 | 35.64283 | 139.98050 | 9777 ft | 277 kts | 12° |
| 2026-05-07 12:17 | 35.66154 | 139.98665 | 10564 ft | 281 kts | 12° |
| 2026-05-07 12:17 | 35.68131 | 139.99020 | 10929 ft | 299 kts | 352° |
| 2026-05-07 12:17 | 35.70210 | 139.98338 | 11065 ft | 323 kts | 330° |
| 2026-05-07 12:18 | 35.72126 | 139.96701 | 11262 ft | 347 kts | 312° |
| 2026-05-07 12:18 | 35.73632 | 139.94293 | 11514 ft | 369 kts | 295° |
| 2026-05-07 12:18 | 35.74482 | 139.91344 | 12491 ft | 370 kts | 278° |
| 2026-05-07 12:18 | 35.74617 | 139.88184 | 13488 ft | 369 kts | 262° |
| 2026-05-07 12:19 | 35.74035 | 139.85123 | 14382 ft | 373 kts | 248° |
| 2026-05-07 12:19 | 35.72889 | 139.82303 | 15217 ft | 377 kts | 243° |
| 2026-05-07 12:19 | 35.71909 | 139.79251 | 15956 ft | 386 kts | 255° |
| 2026-05-07 12:19 | 35.71376 | 139.76073 | 16805 ft | 389 kts | 259° |
| 2026-05-07 12:20 | 35.70964 | 139.72778 | 17484 ft | 396 kts | 262° |
| 2026-05-07 12:20 | 35.70627 | 139.69424 | 18329 ft | 399 kts | 263° |
| 2026-05-07 12:20 | 35.70322 | 139.66036 | 19048 ft | 404 kts | 263° |
| 2026-05-07 12:20 | 35.70036 | 139.62590 | 19818 ft | 408 kts | 263° |
| 2026-05-07 12:21 | 35.69759 | 139.59111 | 20460 ft | 414 kts | 264° |
| 2026-05-07 12:21 | 35.69490 | 139.55644 | 21149 ft | 417 kts | 264° |
| 2026-05-07 12:21 | 35.69218 | 139.52110 | 21835 ft | 421 kts | 264° |
| 2026-05-07 12:21 | 35.68944 | 139.48535 | 22474 ft | 425 kts | 264° |
| 2026-05-07 12:22 | 35.68666 | 139.44910 | 23125 ft | 428 kts | 264° |
| 2026-05-07 12:22 | 35.68388 | 139.41266 | 23796 ft | 431 kts | 263° |
| 2026-05-07 12:22 | 35.68107 | 139.37619 | 24367 ft | 435 kts | 263° |
| 2026-05-07 12:22 | 35.67820 | 139.33885 | 24992 ft | 438 kts | 263° |
| 2026-05-07 12:23 | 35.67532 | 139.30186 | 25539 ft | 443 kts | 262° |
| 2026-05-07 12:23 | 35.67240 | 139.26424 | 26185 ft | 444 kts | 262° |
| 2026-05-07 12:23 | 35.66942 | 139.22613 | 26675 ft | 450 kts | 262° |
| 2026-05-07 12:23 | 35.66642 | 139.18784 | 27252 ft | 453 kts | 262° |
| 2026-05-07 12:24 | 35.66337 | 139.14911 | 27807 ft | 456 kts | 262° |
| 2026-05-07 12:24 | 35.66109 | 139.11063 | 28295 ft | 460 kts | 265° |
| 2026-05-07 12:24 | 35.65946 | 139.07100 | 28895 ft | 460 kts | 264° |
| 2026-05-07 12:24 | 35.65778 | 139.03201 | 29612 ft | 457 kts | 264° |
| 2026-05-07 12:25 | 35.65605 | 138.99306 | 30198 ft | 457 kts | 264° |
| 2026-05-07 12:25 | 35.65433 | 138.95435 | 30967 ft | 453 kts | 264° |
| 2026-05-07 12:25 | 35.65261 | 138.91592 | 31763 ft | 447 kts | 264° |
| 2026-05-07 12:25 | 35.65090 | 138.87817 | 32521 ft | 442 kts | 264° |
| 2026-05-07 12:26 | 35.64918 | 138.84071 | 33019 ft | 443 kts | 264° |
| 2026-05-07 12:26 | 35.64745 | 138.80336 | 33590 ft | 441 kts | 264° |
| 2026-05-07 12:26 | 35.64571 | 138.76553 | 34182 ft | 440 kts | 264° |
| 2026-05-07 12:26 | 35.64397 | 138.72838 | 34784 ft | 438 kts | 264° |
| 2026-05-07 12:27 | 35.64220 | 138.69089 | 35233 ft | 439 kts | 264° |
| 2026-05-07 12:27 | 35.64039 | 138.65361 | 35731 ft | 438 kts | 264° |
| 2026-05-07 12:27 | 35.63845 | 138.61630 | 35975 ft | 437 kts | 264° |
| 2026-05-07 12:28 | 35.63461 | 138.54237 | 35959 ft | 435 kts | 264° |
| 2026-05-07 12:28 | 35.63071 | 138.46843 | 35962 ft | 436 kts | 264° |
| 2026-05-07 12:29 | 35.62674 | 138.39406 | 35993 ft | 435 kts | 264° |
| 2026-05-07 12:29 | 35.62276 | 138.32018 | 36028 ft | 435 kts | 264° |
| 2026-05-07 12:30 | 35.61870 | 138.24577 | 36053 ft | 435 kts | 264° |
| 2026-05-07 12:30 | 35.61463 | 138.17210 | 36046 ft | 434 kts | 264° |
| 2026-05-07 12:31 | 35.61051 | 138.09824 | 36045 ft | 434 kts | 264° |
| 2026-05-07 12:31 | 35.60636 | 138.02458 | 36030 ft | 435 kts | 264° |
| 2026-05-07 12:32 | 35.60215 | 137.95077 | 36025 ft | 434 kts | 264° |
| 2026-05-07 12:32 | 35.59786 | 137.87637 | 36019 ft | 435 kts | 264° |
| 2026-05-07 12:33 | 35.59100 | 137.76549 | 36014 ft | 434 kts | 263° |
| 2026-05-07 12:33 | 35.58557 | 137.69218 | 35999 ft | 434 kts | 263° |
| 2026-05-07 12:34 | 35.58009 | 137.61842 | 35984 ft | 434 kts | 263° |
| 2026-05-07 12:34 | 35.57451 | 137.54540 | 35968 ft | 433 kts | 261° |
| 2026-05-07 12:35 | 35.56098 | 137.47400 | 35954 ft | 431 kts | 255° |
| 2026-05-07 12:35 | 35.54568 | 137.40288 | 35957 ft | 431 kts | 254° |
| 2026-05-07 12:36 | 35.53016 | 137.33174 | 35970 ft | 430 kts | 253° |
| 2026-05-07 12:36 | 35.51535 | 137.26437 | 35967 ft | 431 kts | 253° |
| 2026-05-07 12:37 | 35.49946 | 137.19237 | 35963 ft | 431 kts | 253° |
| 2026-05-07 12:37 | 35.48371 | 137.12129 | 35958 ft | 431 kts | 253° |
| 2026-05-07 12:38 | 35.46799 | 137.05049 | 35944 ft | 431 kts | 253° |
| 2026-05-07 12:38 | 35.45227 | 136.97995 | 35933 ft | 430 kts | 253° |
| 2026-05-07 12:39 | 35.43653 | 136.90953 | 35932 ft | 430 kts | 253° |
| 2026-05-07 12:39 | 35.42067 | 136.83884 | 35926 ft | 428 kts | 253° |
| 2026-05-07 12:40 | 35.40488 | 136.76862 | 35925 ft | 429 kts | 253° |
| 2026-05-07 12:40 | 35.38899 | 136.69817 | 35930 ft | 429 kts | 253° |
| 2026-05-07 12:41 | 35.37315 | 136.62814 | 35940 ft | 428 kts | 253° |
| 2026-05-07 12:41 | 35.35719 | 136.55780 | 35948 ft | 427 kts | 253° |
| 2026-05-07 12:42 | 35.34134 | 136.48811 | 35964 ft | 428 kts | 253° |
| 2026-05-07 12:42 | 35.32530 | 136.41783 | 35952 ft | 429 kts | 253° |
| 2026-05-07 12:43 | 35.30938 | 136.34825 | 35941 ft | 428 kts | 253° |
| 2026-05-07 12:43 | 35.29335 | 136.27835 | 35941 ft | 428 kts | 253° |
| 2026-05-07 12:44 | 35.27731 | 136.20862 | 35929 ft | 427 kts | 253° |
| 2026-05-07 12:44 | 35.26120 | 136.13878 | 35927 ft | 427 kts | 253° |
| 2026-05-07 12:45 | 35.24509 | 136.06915 | 35915 ft | 425 kts | 253° |
| 2026-05-07 12:45 | 35.22900 | 135.99983 | 35921 ft | 424 kts | 253° |
| 2026-05-07 12:46 | 35.21290 | 135.93066 | 35924 ft | 424 kts | 253° |
| 2026-05-07 12:46 | 35.19682 | 135.86175 | 35931 ft | 425 kts | 253° |
| 2026-05-07 12:47 | 35.18081 | 135.79216 | 35940 ft | 425 kts | 256° |
| 2026-05-07 12:47 | 35.16911 | 135.72176 | 35940 ft | 425 kts | 257° |
| 2026-05-07 12:48 | 35.15728 | 135.65117 | 35929 ft | 424 kts | 257° |
| 2026-05-07 12:48 | 35.14542 | 135.58078 | 35926 ft | 425 kts | 257° |
| 2026-05-07 12:49 | 35.13348 | 135.51030 | 35917 ft | 426 kts | 257° |
| 2026-05-07 12:49 | 35.12137 | 135.43912 | 35913 ft | 427 kts | 257° |
| 2026-05-07 12:50 | 35.10940 | 135.36897 | 35913 ft | 426 kts | 257° |
| 2026-05-07 12:50 | 35.09724 | 135.29805 | 35923 ft | 425 kts | 257° |
| 2026-05-07 12:51 | 35.08515 | 135.22771 | 35929 ft | 426 kts | 257° |
| 2026-05-07 12:51 | 35.07303 | 135.15744 | 35913 ft | 425 kts | 257° |
| 2026-05-07 12:52 | 35.06076 | 135.08670 | 35916 ft | 426 kts | 257° |
| 2026-05-07 12:52 | 35.04856 | 135.01648 | 35907 ft | 426 kts | 257° |
| 2026-05-07 12:53 | 35.03623 | 134.94585 | 35907 ft | 424 kts | 257° |
| 2026-05-07 12:53 | 35.02392 | 134.87553 | 35909 ft | 425 kts | 257° |
| 2026-05-07 12:54 | 35.01157 | 134.80528 | 35906 ft | 424 kts | 257° |
| 2026-05-07 12:54 | 34.99921 | 134.73523 | 35904 ft | 422 kts | 257° |
| 2026-05-07 12:55 | 34.98645 | 134.66534 | 35906 ft | 424 kts | 256° |
| 2026-05-07 12:55 | 34.97267 | 134.59549 | 35909 ft | 424 kts | 256° |
| 2026-05-07 12:56 | 34.95897 | 134.52612 | 35909 ft | 423 kts | 256° |
| 2026-05-07 12:56 | 34.94519 | 134.45653 | 35906 ft | 423 kts | 256° |
| 2026-05-07 12:57 | 34.93138 | 134.38702 | 35909 ft | 423 kts | 256° |
| 2026-05-07 12:57 | 34.91750 | 134.31740 | 35914 ft | 424 kts | 256° |
| 2026-05-07 12:58 | 34.90365 | 134.24803 | 35909 ft | 422 kts | 255° |
| 2026-05-07 12:58 | 34.88979 | 134.17896 | 35918 ft | 422 kts | 256° |
| 2026-05-07 12:59 | 34.87580 | 134.10939 | 35917 ft | 421 kts | 256° |
| 2026-05-07 12:59 | 34.86189 | 134.04047 | 35925 ft | 420 kts | 256° |
| 2026-05-07 13:00 | 34.84793 | 133.97151 | 35932 ft | 421 kts | 256° |
| 2026-05-07 13:00 | 34.83388 | 133.90233 | 35939 ft | 420 kts | 256° |
| 2026-05-07 13:01 | 34.81979 | 133.83365 | 35940 ft | 421 kts | 255° |
| 2026-05-07 13:01 | 34.80530 | 133.76491 | 35942 ft | 420 kts | 256° |
| 2026-05-07 13:02 | 34.79075 | 133.69591 | 35942 ft | 422 kts | 256° |
| 2026-05-07 13:02 | 34.77618 | 133.62707 | 35939 ft | 423 kts | 255° |
| 2026-05-07 13:03 | 34.76153 | 133.55804 | 35932 ft | 420 kts | 256° |
| 2026-05-07 13:03 | 34.74694 | 133.48949 | 35931 ft | 422 kts | 255° |
| 2026-05-07 13:04 | 34.73225 | 133.42076 | 35931 ft | 421 kts | 256° |
| 2026-05-07 13:04 | 34.71751 | 133.35193 | 35880 ft | 423 kts | 256° |
| 2026-05-07 13:05 | 34.70267 | 133.28282 | 35908 ft | 421 kts | 255° |
| 2026-05-07 13:05 | 34.68792 | 133.21437 | 35914 ft | 421 kts | 255° |
| 2026-05-07 13:06 | 34.67310 | 133.14578 | 35910 ft | 421 kts | 255° |
| 2026-05-07 13:06 | 34.65811 | 133.07669 | 35911 ft | 423 kts | 255° |
| 2026-05-07 13:07 | 34.64310 | 133.00778 | 35907 ft | 422 kts | 255° |
| 2026-05-07 13:07 | 34.62820 | 132.93947 | 35903 ft | 421 kts | 255° |
| 2026-05-07 13:08 | 34.61321 | 132.87089 | 35904 ft | 422 kts | 255° |
| 2026-05-07 13:08 | 34.59815 | 132.80223 | 35904 ft | 421 kts | 255° |
| 2026-05-07 13:09 | 34.58306 | 132.73358 | 35902 ft | 419 kts | 255° |
| 2026-05-07 13:09 | 34.56807 | 132.66562 | 35900 ft | 420 kts | 255° |
| 2026-05-07 13:10 | 34.56041 | 132.63098 | 35623 ft | 422 kts | 255° |
| 2026-05-07 13:10 | 34.55294 | 132.59721 | 35324 ft | 415 kts | 255° |
| 2026-05-07 13:10 | 34.54545 | 132.56343 | 35016 ft | 408 kts | 255° |
| 2026-05-07 13:10 | 34.53812 | 132.53038 | 34714 ft | 405 kts | 255° |
| 2026-05-07 13:11 | 34.53085 | 132.49764 | 34423 ft | 406 kts | 255° |
| 2026-05-07 13:11 | 34.52344 | 132.46440 | 34131 ft | 411 kts | 255° |
| 2026-05-07 13:11 | 34.51595 | 132.43079 | 33909 ft | 415 kts | 255° |
| 2026-05-07 13:11 | 34.50847 | 132.39728 | 33931 ft | 412 kts | 255° |
| 2026-05-07 13:12 | 34.49343 | 132.33015 | 33935 ft | 414 kts | 255° |
| 2026-05-07 13:12 | 34.48580 | 132.29627 | 33351 ft | 422 kts | 254° |
| 2026-05-07 13:12 | 34.47806 | 132.26184 | 32809 ft | 423 kts | 254° |
| 2026-05-07 13:13 | 34.47032 | 132.22751 | 32260 ft | 421 kts | 254° |
| 2026-05-07 13:13 | 34.46274 | 132.19388 | 31725 ft | 419 kts | 254° |
| 2026-05-07 13:13 | 34.45501 | 132.15965 | 31183 ft | 420 kts | 254° |
| 2026-05-07 13:13 | 34.44734 | 132.12572 | 30652 ft | 422 kts | 254° |
| 2026-05-07 13:14 | 34.43948 | 132.09102 | 30123 ft | 425 kts | 254° |
| 2026-05-07 13:14 | 34.43169 | 132.05664 | 29597 ft | 426 kts | 254° |
| 2026-05-07 13:14 | 34.42379 | 132.02182 | 29073 ft | 427 kts | 255° |
| 2026-05-07 13:14 | 34.41598 | 131.98744 | 28577 ft | 425 kts | 254° |
| 2026-05-07 13:15 | 34.40815 | 131.95309 | 28082 ft | 420 kts | 254° |
| 2026-05-07 13:15 | 34.40046 | 131.91931 | 27596 ft | 414 kts | 254° |
| 2026-05-07 13:15 | 34.39286 | 131.88599 | 27112 ft | 409 kts | 254° |
| 2026-05-07 13:15 | 34.38532 | 131.85300 | 26663 ft | 408 kts | 254° |
| 2026-05-07 13:16 | 34.37774 | 131.81985 | 26204 ft | 409 kts | 254° |
| 2026-05-07 13:16 | 34.37023 | 131.78714 | 25738 ft | 405 kts | 254° |
| 2026-05-07 13:16 | 34.36272 | 131.75439 | 25267 ft | 397 kts | 254° |
| 2026-05-07 13:16 | 34.35536 | 131.72234 | 24799 ft | 393 kts | 254° |
| 2026-05-07 13:17 | 34.34816 | 131.69104 | 24350 ft | 390 kts | 254° |
| 2026-05-07 13:17 | 34.34089 | 131.65948 | 23904 ft | 387 kts | 254° |
| 2026-05-07 13:17 | 34.33361 | 131.62795 | 23463 ft | 384 kts | 254° |
| 2026-05-07 13:17 | 34.32654 | 131.59731 | 23035 ft | 381 kts | 254° |
| 2026-05-07 13:18 | 34.31942 | 131.56654 | 22607 ft | 379 kts | 254° |
| 2026-05-07 13:18 | 34.31239 | 131.53618 | 22187 ft | 376 kts | 254° |
| 2026-05-07 13:18 | 34.30530 | 131.50557 | 21761 ft | 374 kts | 254° |
| 2026-05-07 13:18 | 34.29835 | 131.47560 | 21344 ft | 372 kts | 254° |
| 2026-05-07 13:19 | 34.29143 | 131.44586 | 21211 ft | 362 kts | 254° |
| 2026-05-07 13:19 | 34.28470 | 131.41693 | 21198 ft | 361 kts | 253° |
| 2026-05-07 13:19 | 34.27780 | 131.38731 | 21202 ft | 371 kts | 254° |
| 2026-05-07 13:19 | 34.27070 | 131.35684 | 21196 ft | 374 kts | 254° |
| 2026-05-07 13:20 | 34.26365 | 131.32667 | 21192 ft | 371 kts | 253° |
| 2026-05-07 13:20 | 34.25663 | 131.29666 | 21197 ft | 370 kts | 253° |
| 2026-05-07 13:20 | 34.24966 | 131.26686 | 21202 ft | 371 kts | 253° |
| 2026-05-07 13:20 | 34.24265 | 131.23697 | 21205 ft | 372 kts | 253° |
| 2026-05-07 13:21 | 34.23562 | 131.20700 | 21203 ft | 373 kts | 253° |
| 2026-05-07 13:21 | 34.22848 | 131.17662 | 21202 ft | 373 kts | 253° |
| 2026-05-07 13:21 | 34.22139 | 131.14650 | 21198 ft | 370 kts | 253° |
| 2026-05-07 13:21 | 34.21437 | 131.11665 | 21200 ft | 371 kts | 253° |
| 2026-05-07 13:22 | 34.20734 | 131.08687 | 21197 ft | 372 kts | 253° |
| 2026-05-07 13:22 | 34.20022 | 131.05670 | 21036 ft | 377 kts | 253° |
| 2026-05-07 13:22 | 34.19297 | 131.02626 | 20938 ft | 370 kts | 252° |
| 2026-05-07 13:22 | 34.18671 | 130.99716 | 20890 ft | 351 kts | 260° |
| 2026-05-07 13:23 | 34.18560 | 130.96849 | 20569 ft | 341 kts | 270° |
| 2026-05-07 13:23 | 34.18747 | 130.93985 | 19880 ft | 341 kts | 271° |
| 2026-05-07 13:23 | 34.18973 | 130.91171 | 19247 ft | 338 kts | 272° |
| 2026-05-07 13:23 | 34.19193 | 130.88393 | 18621 ft | 335 kts | 272° |
| 2026-05-07 13:24 | 34.19423 | 130.85586 | 17998 ft | 331 kts | 272° |
| 2026-05-07 13:24 | 34.19653 | 130.82837 | 17370 ft | 329 kts | 272° |
| 2026-05-07 13:24 | 34.19877 | 130.80129 | 16773 ft | 326 kts | 272° |
| 2026-05-07 13:24 | 34.20096 | 130.77408 | 16068 ft | 326 kts | 272° |
| 2026-05-07 13:25 | 34.20306 | 130.74705 | 15468 ft | 323 kts | 271° |
| 2026-05-07 13:25 | 34.20233 | 130.71994 | 14733 ft | 320 kts | 256° |
| 2026-05-07 13:25 | 34.19478 | 130.69550 | 14147 ft | 315 kts | 239° |
| 2026-05-07 13:25 | 34.18185 | 130.67506 | 14112 ft | 295 kts | 231° |
| 2026-05-07 13:26 | 34.16891 | 130.65691 | 13922 ft | 280 kts | 231° |
| 2026-05-07 13:26 | 34.15619 | 130.63908 | 13338 ft | 280 kts | 231° |
| 2026-05-07 13:26 | 34.14355 | 130.62129 | 12776 ft | 279 kts | 231° |
| 2026-05-07 13:26 | 34.13091 | 130.60358 | 12254 ft | 276 kts | 231° |
| 2026-05-07 13:27 | 34.11842 | 130.58615 | 11895 ft | 266 kts | 231° |
| 2026-05-07 13:27 | 34.10676 | 130.56982 | 11931 ft | 251 kts | 231° |
| 2026-05-07 13:27 | 34.09563 | 130.55437 | 11891 ft | 239 kts | 231° |
| 2026-05-07 13:27 | 34.08488 | 130.53958 | 11762 ft | 229 kts | 231° |
| 2026-05-07 13:28 | 34.07443 | 130.52524 | 11397 ft | 229 kts | 231° |
| 2026-05-07 13:28 | 34.06393 | 130.51086 | 11088 ft | 229 kts | 231° |
| 2026-05-07 13:28 | 34.05341 | 130.49643 | 10839 ft | 227 kts | 231° |
| 2026-05-07 13:28 | 34.04307 | 130.48225 | 10546 ft | 228 kts | 231° |
| 2026-05-07 13:29 | 34.03260 | 130.46786 | 10302 ft | 225 kts | 231° |
| 2026-05-07 13:29 | 34.02220 | 130.45361 | 9932 ft | 228 kts | 231° |
| 2026-05-07 13:29 | 34.01175 | 130.43929 | 9714 ft | 226 kts | 231° |
| 2026-05-07 13:29 | 34.00146 | 130.42519 | 9489 ft | 224 kts | 231° |
| 2026-05-07 13:30 | 33.99110 | 130.41092 | 9211 ft | 225 kts | 231° |
| 2026-05-07 13:30 | 33.98095 | 130.39690 | 8966 ft | 224 kts | 231° |
| 2026-05-07 13:30 | 33.97061 | 130.38258 | 8715 ft | 223 kts | 231° |
| 2026-05-07 13:30 | 33.96034 | 130.36839 | 8437 ft | 224 kts | 231° |
| 2026-05-07 13:31 | 33.95019 | 130.35442 | 8223 ft | 222 kts | 231° |
| 2026-05-07 13:31 | 33.94000 | 130.34039 | 7976 ft | 221 kts | 231° |
| 2026-05-07 13:31 | 33.92997 | 130.32660 | 7957 ft | 218 kts | 231° |
| 2026-05-07 13:31 | 33.91999 | 130.31274 | 7964 ft | 222 kts | 231° |
| 2026-05-07 13:32 | 33.90976 | 130.29855 | 7968 ft | 225 kts | 231° |
| 2026-05-07 13:32 | 33.89962 | 130.28445 | 7936 ft | 218 kts | 231° |
| 2026-05-07 13:32 | 33.88969 | 130.27046 | 7627 ft | 222 kts | 231° |
| 2026-05-07 13:32 | 33.87920 | 130.25707 | 7387 ft | 222 kts | 217° |
| 2026-05-07 13:33 | 33.86484 | 130.25006 | 7103 ft | 227 kts | 193° |
| 2026-05-07 13:33 | 33.84896 | 130.24713 | 6875 ft | 227 kts | 191° |
| 2026-05-07 13:33 | 33.83342 | 130.24448 | 6627 ft | 227 kts | 192° |
| 2026-05-07 13:33 | 33.81789 | 130.24175 | 6510 ft | 219 kts | 192° |
| 2026-05-07 13:34 | 33.80337 | 130.23923 | 6461 ft | 207 kts | 192° |
| 2026-05-07 13:34 | 33.77592 | 130.23460 | 6107 ft | 200 kts | 192° |
| 2026-05-07 13:34 | 33.76249 | 130.23227 | 5925 ft | 191 kts | 192° |
| 2026-05-07 13:35 | 33.74937 | 130.23006 | 5614 ft | 191 kts | 192° |
| 2026-05-07 13:35 | 33.73632 | 130.22786 | 5304 ft | 189 kts | 192° |
| 2026-05-07 13:35 | 33.72323 | 130.22562 | 4989 ft | 188 kts | 192° |
| 2026-05-07 13:35 | 33.71022 | 130.22333 | 4730 ft | 186 kts | 192° |
| 2026-05-07 13:36 | 33.69742 | 130.22336 | 4481 ft | 192 kts | 165° |
| 2026-05-07 13:36 | 33.68659 | 130.23290 | 4228 ft | 199 kts | 125° |
| 2026-05-07 13:36 | 33.68124 | 130.24831 | 4016 ft | 203 kts | 111° |
| 2026-05-07 13:36 | 33.67709 | 130.26407 | 3694 ft | 195 kts | 111° |
| 2026-05-07 13:37 | 33.67308 | 130.27930 | 3304 ft | 189 kts | 111° |
| 2026-05-07 13:37 | 33.66920 | 130.29399 | 2928 ft | 183 kts | 112° |
| 2026-05-07 13:37 | 33.66241 | 130.30608 | 2553 ft | 171 kts | 143° |
| 2026-05-07 13:37 | 33.65309 | 130.31499 | 2190 ft | 169 kts | 148° |
| 2026-05-07 13:38 | 33.64366 | 130.32281 | 1953 ft | 161 kts | 150° |
| 2026-05-07 13:38 | 33.63453 | 130.33034 | 2006 ft | 161 kts | 150° |
| 2026-05-07 13:38 | 33.62493 | 130.33821 | 1974 ft | 172 kts | 150° |
| 2026-05-07 13:38 | 33.61506 | 130.34619 | 1753 ft | 170 kts | 149° |
| 2026-05-07 13:39 | 33.60538 | 130.35387 | 1564 ft | 160 kts | 149° |
| 2026-05-07 13:39 | 33.59670 | 130.36163 | 1391 ft | 156 kts | 139° |
| 2026-05-07 13:39 | 33.58939 | 130.37132 | 1256 ft | 153 kts | 135° |
| 2026-05-07 13:39 | 33.58192 | 130.38039 | 1236 ft | 153 kts | 136° |
| 2026-05-07 13:40 | 33.57523 | 130.39061 | 1238 ft | 158 kts | 126° |
| 2026-05-07 13:40 | 33.56878 | 130.40109 | 1288 ft | 154 kts | 133° |
| 2026-05-07 13:40 | 33.56141 | 130.41049 | 1311 ft | 155 kts | 138° |
| 2026-05-07 13:40 | 33.55353 | 130.41954 | 1335 ft | 156 kts | 139° |
| 2026-05-07 13:41 | 33.54580 | 130.42880 | 1260 ft | 159 kts | 131° |
| 2026-05-07 13:41 | 33.54127 | 130.44089 | 1084 ft | 162 kts | 97° |
| 2026-05-07 13:41 | 33.54325 | 130.45371 | 867 ft | 155 kts | 59° |
| 2026-05-07 13:41 | 33.55107 | 130.46188 | 704 ft | 148 kts | 21° |
| 2026-05-07 13:42 | 33.56100 | 130.46477 | 462 ft | 147 kts | 359° |
| 2026-05-07 13:42 | 33.57039 | 130.46137 | 224 ft | 142 kts | 330° |
| 2026-05-07 13:42 | 33.57895 | 130.45544 | 56 ft | 138 kts | 331° |
| 2026-05-07 13:42 | 33.58623 | 130.45050 | 46 ft | 92 kts | 331° |
| 2026-05-07 13:43 | 33.59025 | 130.44798 | 46 ft | 52 kts | 345° |
| 2026-05-07 13:43 | 33.59223 | 130.44769 | 46 ft | 15 kts | 0° |
| 2026-05-07 13:43 | 33.59319 | 130.44771 | 46 ft | 9 kts | 360° |
| 2026-05-07 13:43 | 33.59339 | 130.44771 | 46 ft | 0 kts | 359° |
| 2026-05-07 13:44 | 33.59361 | 130.44768 | 46 ft | 7 kts | 353° |
| 2026-05-07 13:44 | 33.59420 | 130.44737 | 46 ft | 12 kts | 328° |
| 2026-05-07 13:44 | 33.59513 | 130.44670 | 46 ft | 19 kts | 329° |
| 2026-05-07 13:45 | 33.59640 | 130.44583 | 46 ft | 16 kts | 330° |
| 2026-05-07 13:45 | 33.59676 | 130.44569 | 46 ft | 3 kts | 17° |
| 2026-05-07 13:45 | 33.59705 | 130.44592 | 46 ft | 7 kts | 34° |
| 2026-05-07 13:45 | 33.59755 | 130.44634 | 46 ft | 10 kts | 36° |
| 2026-05-07 13:46 | 33.59772 | 130.44656 | 46 ft | 4 kts | 54° |
| 2026-05-07 13:46 | 33.59786 | 130.44684 | 46 ft | 2 kts | 59° |
| 2026-05-07 13:46 | 33.59791 | 130.44694 | 46 ft | 0 kts | 59° |